sensor_id;sensor_type;location;lat;lon;timestamp;pressure;altitude;pressure_sealevel;temperature;humidity
60345;BME280;46188;52.324;8.032;2023-05-23T00:02:17;100343.13;;;15.04;100.00
60345;BME280;46188;52.324;8.032;2023-05-23T00:04:42;100342.22;;;15.06;100.00
60345;BME280;46188;52.324;8.032;2023-05-23T00:07:08;100344.91;;;15.03;100.00
60345;BME280;46188;52.324;8.032;2023-05-23T00:09:33;100343.13;;;15.02;100.00
60345;BME280;46188;52.324;8.032;2023-05-23T00:11:59;100339.66;;;14.94;100.00
60345;BME280;46188;52.324;8.032;2023-05-23T00:14:24;100347.66;;;14.91;100.00
60345;BME280;46188;52.324;8.032;2023-05-23T00:16:50;100346.81;;;14.86;100.00
60345;BME280;46188;52.324;8.032;2023-05-23T00:19:16;100346.81;;;14.86;100.00
60345;BME280;46188;52.324;8.032;2023-05-23T00:21:42;100342.41;;;14.85;100.00
60345;BME280;46188;52.324;8.032;2023-05-23T00:24:12;100341.59;;;14.80;100.00
60345;BME280;46188;52.324;8.032;2023-05-23T00:26:38;100350.47;;;14.74;100.00
60345;BME280;46188;52.324;8.032;2023-05-23T00:29:03;100349.63;;;14.69;100.00
60345;BME280;46188;52.324;8.032;2023-05-23T00:31:29;100354.97;;;14.63;100.00
60345;BME280;46188;52.324;8.032;2023-05-23T00:33:54;100355.84;;;14.65;100.00
60345;BME280;46188;52.324;8.032;2023-05-23T00:36:19;100355.88;;;14.57;100.00
60345;BME280;46188;52.324;8.032;2023-05-23T00:38:46;100365.66;;;14.47;100.00
60345;BME280;46188;52.324;8.032;2023-05-23T00:41:11;100370.09;;;14.44;100.00
60345;BME280;46188;52.324;8.032;2023-05-23T00:43:36;100373.72;;;14.35;100.00
60345;BME280;46188;52.324;8.032;2023-05-23T00:46:02;100383.44;;;14.30;100.00
60345;BME280;46188;52.324;8.032;2023-05-23T00:48:28;100377.28;;;14.21;100.00
60345;BME280;46188;52.324;8.032;2023-05-23T00:50:54;100376.41;;;14.21;100.00
60345;BME280;46188;52.324;8.032;2023-05-23T00:53:20;100385.31;;;14.11;100.00
60345;BME280;46188;52.324;8.032;2023-05-23T00:55:45;100385.31;;;14.14;100.00
60345;BME280;46188;52.324;8.032;2023-05-23T00:58:11;100382.69;;;14.06;100.00
60345;BME280;46188;52.324;8.032;2023-05-23T01:00:39;100387.13;;;14.04;100.00
60345;BME280;46188;52.324;8.032;2023-05-23T01:03:04;100387.09;;;14.13;100.00
60345;BME280;46188;52.324;8.032;2023-05-23T01:05:29;100392.41;;;14.06;100.00
60345;BME280;46188;52.324;8.032;2023-05-23T01:07:55;100390.63;;;14.06;100.00
60345;BME280;46188;52.324;8.032;2023-05-23T01:10:23;100388.84;;;14.10;100.00
60345;BME280;46188;52.324;8.032;2023-05-23T01:12:57;100392.38;;;14.13;100.00
60345;BME280;46188;52.324;8.032;2023-05-23T01:15:51;100387.03;;;14.19;100.00
60345;BME280;46188;52.324;8.032;2023-05-23T01:18:18;100381.72;;;14.21;100.00
60345;BME280;46188;52.324;8.032;2023-05-23T01:20:53;100385.31;;;14.11;100.00
60345;BME280;46188;52.324;8.032;2023-05-23T01:27:04;100388.81;;;14.17;100.00
60345;BME280;46188;52.324;8.032;2023-05-23T01:29:35;100387.94;;;14.17;100.00
60345;BME280;46188;52.324;8.032;2023-05-23T01:32:06;100397.66;;;14.16;100.00
60345;BME280;46188;52.324;8.032;2023-05-23T01:34:35;100398.53;;;14.20;100.00
60345;BME280;46188;52.324;8.032;2023-05-23T01:37:00;100398.53;;;14.20;100.00
60345;BME280;46188;52.324;8.032;2023-05-23T01:39:26;100395.91;;;14.17;100.00
60345;BME280;46188;52.324;8.032;2023-05-23T01:41:51;100400.34;;;14.13;100.00
60345;BME280;46188;52.324;8.032;2023-05-23T01:44:17;100402.09;;;14.07;100.00
60345;BME280;46188;52.324;8.032;2023-05-23T01:46:43;100406.59;;;13.95;100.00
60345;BME280;46188;52.324;8.032;2023-05-23T01:49:11;100402.16;;;13.97;100.00
60345;BME280;46188;52.324;8.032;2023-05-23T01:51:38;100410.97;;;14.02;100.00
60345;BME280;46188;52.324;8.032;2023-05-23T01:54:04;100412.69;;;14.10;100.00
60345;BME280;46188;52.324;8.032;2023-05-23T01:56:29;100407.38;;;14.11;100.00
60345;BME280;46188;52.324;8.032;2023-05-23T01:58:55;100416.25;;;14.12;100.00
60345;BME280;46188;52.324;8.032;2023-05-23T02:01:20;100403.03;;;14.02;100.00
60345;BME280;46188;52.324;8.032;2023-05-23T02:03:45;100404.81;;;14.02;100.00
60345;BME280;46188;52.324;8.032;2023-05-23T02:06:11;100407.47;;;13.99;100.00
60345;BME280;46188;52.324;8.032;2023-05-23T02:08:36;100402.16;;;13.96;100.00
60345;BME280;46188;52.324;8.032;2023-05-23T02:11:02;100407.44;;;14.02;100.00
60345;BME280;46188;52.324;8.032;2023-05-23T02:13:27;100414.50;;;14.03;100.00
60345;BME280;46188;52.324;8.032;2023-05-23T02:15:52;100410.97;;;14.06;100.00
60345;BME280;46188;52.324;8.032;2023-05-23T02:18:17;100409.19;;;14.01;100.00
60345;BME280;46188;52.324;8.032;2023-05-23T02:20:43;100412.75;;;14.02;100.00
60345;BME280;46188;52.324;8.032;2023-05-23T02:23:08;100403.00;;;14.04;100.00
60345;BME280;46188;52.324;8.032;2023-05-23T02:25:33;100410.06;;;14.08;100.00
60345;BME280;46188;52.324;8.032;2023-05-23T02:27:59;100406.53;;;14.09;100.00
60345;BME280;46188;52.324;8.032;2023-05-23T02:30:24;100413.63;;;14.07;100.00
60345;BME280;46188;52.324;8.032;2023-05-23T02:32:49;100408.31;;;14.02;100.00
60345;BME280;46188;52.324;8.032;2023-05-23T02:35:15;100409.19;;;14.05;100.00
60345;BME280;46188;52.324;8.032;2023-05-23T02:37:41;100414.50;;;14.05;100.00
60345;BME280;46188;52.324;8.032;2023-05-23T02:40:06;100412.75;;;14.00;100.00
60345;BME280;46188;52.324;8.032;2023-05-23T02:42:32;100415.44;;;13.91;100.00
60345;BME280;46188;52.324;8.032;2023-05-23T02:44:57;100419.84;;;13.95;100.00
60345;BME280;46188;52.324;8.032;2023-05-23T02:47:23;100415.44;;;13.91;100.00
60345;BME280;46188;52.324;8.032;2023-05-23T02:49:48;100421.66;;;13.81;100.00
60345;BME280;46188;52.324;8.032;2023-05-23T02:52:13;100414.56;;;13.80;100.00
60345;BME280;46188;52.324;8.032;2023-05-23T02:54:38;100419.91;;;13.74;100.00
60345;BME280;46188;52.324;8.032;2023-05-23T02:57:05;100416.38;;;13.75;100.00
60345;BME280;46188;52.324;8.032;2023-05-23T02:59:30;100419.91;;;13.72;100.00
60345;BME280;46188;52.324;8.032;2023-05-23T03:01:55;100418.16;;;13.71;100.00
60345;BME280;46188;52.324;8.032;2023-05-23T03:04:21;100411.06;;;13.69;100.00
60345;BME280;46188;52.324;8.032;2023-05-23T03:06:46;100417.28;;;13.69;100.00
60345;BME280;46188;52.324;8.032;2023-05-23T03:09:14;100415.50;;;13.74;100.00
60345;BME280;46188;52.324;8.032;2023-05-23T03:11:40;100419.88;;;13.77;100.00
60345;BME280;46188;52.324;8.032;2023-05-23T03:14:05;100418.16;;;13.74;100.00
60345;BME280;46188;52.324;8.032;2023-05-23T03:16:31;100413.72;;;13.69;100.00
60345;BME280;46188;52.324;8.032;2023-05-23T03:18:56;100407.53;;;13.73;100.00
60345;BME280;46188;52.324;8.032;2023-05-23T03:21:21;100415.50;;;13.66;100.00
60345;BME280;46188;52.324;8.032;2023-05-23T03:23:47;100414.63;;;13.71;100.00
60345;BME280;46188;52.324;8.032;2023-05-23T03:26:12;100418.13;;;13.76;100.00
60345;BME280;46188;52.324;8.032;2023-05-23T03:28:37;100421.66;;;13.76;100.00
60345;BME280;46188;52.324;8.032;2023-05-23T03:31:02;100424.34;;;13.62;100.00
60345;BME280;46188;52.324;8.032;2023-05-23T03:33:28;100423.44;;;13.63;100.00
60345;BME280;46188;52.324;8.032;2023-05-23T03:35:53;100423.44;;;13.63;100.00
60345;BME280;46188;52.324;8.032;2023-05-23T03:38:19;100415.50;;;13.68;100.00
60345;BME280;46188;52.324;8.032;2023-05-23T03:40:44;100426.09;;;13.70;100.00
60345;BME280;46188;52.324;8.032;2023-05-23T03:43:09;100428.75;;;13.70;100.00
60345;BME280;46188;52.324;8.032;2023-05-23T03:45:35;100419.03;;;13.72;100.00
60345;BME280;46188;52.324;8.032;2023-05-23T03:48:00;100428.72;;;13.79;100.00
60345;BME280;46188;52.324;8.032;2023-05-23T03:50:26;100425.22;;;13.74;100.00
60345;BME280;46188;52.324;8.032;2023-05-23T03:52:52;100423.44;;;13.63;100.00
60345;BME280;46188;52.324;8.032;2023-05-23T03:55:19;100430.53;;;13.61;100.00
60345;BME280;46188;52.324;8.032;2023-05-23T03:57:47;100427.00;;;13.64;100.00
60345;BME280;46188;52.324;8.032;2023-05-23T04:00:13;100421.72;;;13.59;100.00
60345;BME280;46188;52.324;8.032;2023-05-23T04:02:38;100430.53;;;13.63;100.00
60345;BME280;46188;52.324;8.032;2023-05-23T04:05:04;100433.19;;;13.63;100.00
60345;BME280;46188;52.324;8.032;2023-05-23T04:07:31;100436.72;;;13.57;100.00
60345;BME280;46188;52.324;8.032;2023-05-23T04:09:58;100446.41;;;13.58;100.00
60345;BME280;46188;52.324;8.032;2023-05-23T04:12:23;100446.41;;;13.55;100.00
60345;BME280;46188;52.324;8.032;2023-05-23T04:14:49;100446.41;;;13.55;100.00
60345;BME280;46188;52.324;8.032;2023-05-23T04:17:14;100444.69;;;13.54;100.00
60345;BME280;46188;52.324;8.032;2023-05-23T04:19:40;100448.19;;;13.53;100.00
60345;BME280;46188;52.324;8.032;2023-05-23T04:22:05;100452.63;;;13.46;100.00
60345;BME280;46188;52.324;8.032;2023-05-23T04:24:30;100455.28;;;13.51;100.00
60345;BME280;46188;52.324;8.032;2023-05-23T04:26:55;100455.28;;;13.56;100.00
60345;BME280;46188;52.324;8.032;2023-05-23T04:29:21;100454.38;;;13.54;100.00
60345;BME280;46188;52.324;8.032;2023-05-23T04:31:46;100455.28;;;13.51;100.00
60345;BME280;46188;52.324;8.032;2023-05-23T04:34:11;100455.28;;;13.56;100.00
60345;BME280;46188;52.324;8.032;2023-05-23T04:36:37;100465.88;;;13.57;100.00
60345;BME280;46188;52.324;8.032;2023-05-23T04:39:06;100464.97;;;13.54;100.00
60345;BME280;46188;52.324;8.032;2023-05-23T04:41:31;100468.50;;;13.53;100.00
60345;BME280;46188;52.324;8.032;2023-05-23T04:43:56;100471.16;;;13.56;100.00
60345;BME280;46188;52.324;8.032;2023-05-23T04:46:22;100462.34;;;13.49;100.00
60345;BME280;46188;52.324;8.032;2023-05-23T04:48:50;100460.56;;;13.48;100.00
60345;BME280;46188;52.324;8.032;2023-05-23T04:51:15;100476.47;;;13.48;100.00
60345;BME280;46188;52.324;8.032;2023-05-23T04:53:40;100480.00;;;13.41;100.00
60345;BME280;46188;52.324;8.032;2023-05-23T04:56:06;100476.44;;;13.39;100.00
60345;BME280;46188;52.324;8.032;2023-05-23T04:58:32;100485.31;;;13.44;100.00
60345;BME280;46188;52.324;8.032;2023-05-23T05:00:58;100489.69;;;13.48;100.00
60345;BME280;46188;52.324;8.032;2023-05-23T05:03:23;100490.59;;;13.41;100.00
60345;BME280;46188;52.324;8.032;2023-05-23T05:05:49;100498.53;;;13.42;100.00
60345;BME280;46188;52.324;8.032;2023-05-23T05:08:14;100495.88;;;13.48;100.00
60345;BME280;46188;52.324;8.032;2023-05-23T05:10:39;100498.53;;;13.41;100.00
60345;BME280;46188;52.324;8.032;2023-05-23T05:13:05;100508.22;;;13.45;100.00
60345;BME280;46188;52.324;8.032;2023-05-23T05:15:30;100497.63;;;13.43;100.00
60345;BME280;46188;52.324;8.032;2023-05-23T05:17:56;100504.72;;;13.41;100.00
60345;BME280;46188;52.324;8.032;2023-05-23T05:20:21;100516.19;;;13.37;100.00
60345;BME280;46188;52.324;8.032;2023-05-23T05:22:54;100512.63;;;13.24;100.00
60345;BME280;46188;52.324;8.032;2023-05-23T05:25:19;100523.19;;;13.18;100.00
60345;BME280;46188;52.324;8.032;2023-05-23T05:27:45;100530.25;;;13.13;100.00
60345;BME280;46188;52.324;8.032;2023-05-23T05:30:10;100528.50;;;13.06;100.00
60345;BME280;46188;52.324;8.032;2023-05-23T05:32:36;100524.94;;;12.99;100.00
60345;BME280;46188;52.324;8.032;2023-05-23T05:35:01;100532.88;;;12.98;100.00
60345;BME280;46188;52.324;8.032;2023-05-23T05:37:27;100526.69;;;13.02;100.00
60345;BME280;46188;52.324;8.032;2023-05-23T05:39:53;100536.41;;;13.04;100.00
60345;BME280;46188;52.324;8.032;2023-05-23T05:42:19;100535.50;;;13.01;100.00
60345;BME280;46188;52.324;8.032;2023-05-23T05:44:46;100538.16;;;13.01;100.00
60345;BME280;46188;52.324;8.032;2023-05-23T05:47:11;100534.63;;;13.02;100.00
60345;BME280;46188;52.324;8.032;2023-05-23T05:49:37;100537.28;;;13.03;100.00
60345;BME280;46188;52.324;8.032;2023-05-23T05:52:02;100539.94;;;13.06;100.00
60345;BME280;46188;52.324;8.032;2023-05-23T05:54:27;100541.69;;;13.00;100.00
60345;BME280;46188;52.324;8.032;2023-05-23T05:56:53;100545.22;;;13.02;100.00
60345;BME280;46188;52.324;8.032;2023-05-23T05:59:19;100549.63;;;13.00;100.00
60345;BME280;46188;52.324;8.032;2023-05-23T06:01:44;100556.69;;;12.98;100.00
60345;BME280;46188;52.324;8.032;2023-05-23T06:04:10;100552.25;;;12.90;100.00
60345;BME280;46188;52.324;8.032;2023-05-23T06:06:35;100561.06;;;12.83;100.00
60345;BME280;46188;52.324;8.032;2023-05-23T06:09:01;100557.50;;;12.78;100.00
60345;BME280;46188;52.324;8.032;2023-05-23T06:11:26;100568.94;;;12.74;100.00
60345;BME280;46188;52.324;8.032;2023-05-23T06:13:51;100569.84;;;12.79;100.00
60345;BME280;46188;52.324;8.032;2023-05-23T06:16:17;100577.81;;;12.85;100.00
60345;BME280;46188;52.324;8.032;2023-05-23T06:18:42;100578.69;;;12.89;100.00
60345;BME280;46188;52.324;8.032;2023-05-23T06:21:08;100580.44;;;12.85;100.00
60345;BME280;46188;52.324;8.032;2023-05-23T06:23:33;100588.38;;;12.81;100.00
60345;BME280;46188;52.324;8.032;2023-05-23T06:25:59;100591.88;;;12.70;100.00
60345;BME280;46188;52.324;8.032;2023-05-23T06:28:24;100588.34;;;12.73;100.00
60345;BME280;46188;52.324;8.032;2023-05-23T06:30:50;100589.22;;;12.70;100.00
60345;BME280;46188;52.324;8.032;2023-05-23T06:33:15;100598.06;;;12.69;100.00
60345;BME280;46188;52.324;8.032;2023-05-23T06:35:40;100591.81;;;12.58;100.00
60345;BME280;46188;52.324;8.032;2023-05-23T06:38:05;100597.13;;;12.61;100.00
60345;BME280;46188;52.324;8.032;2023-05-23T06:40:31;100608.59;;;12.65;100.00
60345;BME280;46188;52.324;8.032;2023-05-23T06:42:56;100611.28;;;12.69;100.00
60345;BME280;46188;52.324;8.032;2023-05-23T06:45:21;100614.81;;;12.71;100.00
60345;BME280;46188;52.324;8.032;2023-05-23T06:47:46;100612.13;;;12.68;100.00
60345;BME280;46188;52.324;8.032;2023-05-23T06:50:13;100617.38;;;12.62;100.00
60345;BME280;46188;52.324;8.032;2023-05-23T06:52:38;100626.22;;;12.63;100.00
60345;BME280;46188;52.324;8.032;2023-05-23T06:55:04;100624.47;;;12.65;100.00
60345;BME280;46188;52.324;8.032;2023-05-23T06:57:29;100630.66;;;12.68;100.00
60345;BME280;46188;52.324;8.032;2023-05-23T06:59:55;100638.59;;;12.70;100.00
60345;BME280;46188;52.324;8.032;2023-05-23T07:02:20;100636.81;;;12.63;100.00
60345;BME280;46188;52.324;8.032;2023-05-23T07:04:45;100642.09;;;12.66;100.00
60345;BME280;46188;52.324;8.032;2023-05-23T07:07:10;100642.97;;;12.65;100.00
60345;BME280;46188;52.324;8.032;2023-05-23T07:09:36;100642.09;;;12.61;100.00
60345;BME280;46188;52.324;8.032;2023-05-23T07:12:02;100642.09;;;12.63;100.00
60345;BME280;46188;52.324;8.032;2023-05-23T07:14:27;100648.25;;;12.62;100.00
60345;BME280;46188;52.324;8.032;2023-05-23T07:16:53;100648.25;;;12.62;100.00
60345;BME280;46188;52.324;8.032;2023-05-23T07:19:18;100646.44;;;12.56;100.00
60345;BME280;46188;52.324;8.032;2023-05-23T07:21:43;100657.88;;;12.52;100.00
60345;BME280;46188;52.324;8.032;2023-05-23T07:24:08;100655.19;;;12.46;100.00
60345;BME280;46188;52.324;8.032;2023-05-23T07:26:34;100663.94;;;12.35;100.00
60345;BME280;46188;52.324;8.032;2023-05-23T07:28:59;100662.16;;;12.30;100.00
60345;BME280;46188;52.324;8.032;2023-05-23T07:31:24;100664.81;;;12.30;100.00
60345;BME280;46188;52.324;8.032;2023-05-23T07:33:49;100664.00;;;12.42;100.00
60345;BME280;46188;52.324;8.032;2023-05-23T07:36:15;100677.22;;;12.43;100.00
60345;BME280;46188;52.324;8.032;2023-05-23T07:38:40;100671.03;;;12.36;100.00
60345;BME280;46188;52.324;8.032;2023-05-23T07:41:05;100685.13;;;12.39;100.00
60345;BME280;46188;52.324;8.032;2023-05-23T07:43:31;100691.31;;;12.42;100.00
60345;BME280;46188;52.324;8.032;2023-05-23T07:45:56;100687.81;;;12.43;100.00
60345;BME280;46188;52.324;8.032;2023-05-23T07:48:21;100698.25;;;12.28;100.00
60345;BME280;46188;52.324;8.032;2023-05-23T07:50:46;100702.66;;;12.27;100.00
60345;BME280;46188;52.324;8.032;2023-05-23T07:53:12;100703.53;;;12.25;100.00
60345;BME280;46188;52.324;8.032;2023-05-23T07:55:37;100705.25;;;12.23;100.00
60345;BME280;46188;52.324;8.032;2023-05-23T07:58:04;100714.91;;;12.17;100.00
60345;BME280;46188;52.324;8.032;2023-05-23T08:00:29;100717.59;;;12.21;100.00
60345;BME280;46188;52.324;8.032;2023-05-23T08:02:54;100723.72;;;12.13;100.00
60345;BME280;46188;52.324;8.032;2023-05-23T08:05:20;100729.03;;;12.16;100.00
60345;BME280;46188;52.324;8.032;2023-05-23T08:07:46;100721.97;;;12.17;100.00
60345;BME280;46188;52.324;8.032;2023-05-23T08:10:12;100719.31;;;12.15;100.00
60345;BME280;46188;52.324;8.032;2023-05-23T08:12:37;100729.03;;;12.19;100.00
60345;BME280;46188;52.324;8.032;2023-05-23T08:15:02;100729.03;;;12.16;100.00
60345;BME280;46188;52.324;8.032;2023-05-23T08:17:28;100738.59;;;12.05;100.00
60345;BME280;46188;52.324;8.032;2023-05-23T08:19:53;100735.84;;;11.94;100.00
60345;BME280;46188;52.324;8.032;2023-05-23T08:22:18;100748.09;;;11.89;100.00
60345;BME280;46188;52.324;8.032;2023-05-23T08:24:43;100756.09;;;11.94;100.00
60345;BME280;46188;52.324;8.032;2023-05-23T08:27:09;100754.31;;;11.93;100.00
60345;BME280;46188;52.324;8.032;2023-05-23T08:29:34;100756.97;;;11.94;100.00
60345;BME280;46188;52.324;8.032;2023-05-23T08:31:59;100764.06;;;11.95;100.00
60345;BME280;46188;52.324;8.032;2023-05-23T08:34:25;100766.56;;;11.86;100.00
60345;BME280;46188;52.324;8.032;2023-05-23T08:36:50;100771.75;;;11.75;100.00
60345;BME280;46188;52.324;8.032;2023-05-23T08:39:16;100765.53;;;11.72;100.00
60345;BME280;46188;52.324;8.032;2023-05-23T08:41:42;100769.91;;;11.71;100.00
60345;BME280;46188;52.324;8.032;2023-05-23T08:44:07;100781.41;;;11.75;100.00
60345;BME280;46188;52.324;8.032;2023-05-23T08:46:32;100776.97;;;11.72;100.00
60345;BME280;46188;52.324;8.032;2023-05-23T08:48:58;100776.91;;;11.68;100.00
60345;BME280;46188;52.324;8.032;2023-05-23T08:51:25;100788.38;;;11.68;100.00
60345;BME280;46188;52.324;8.032;2023-05-23T08:53:52;100783.13;;;11.71;100.00
60345;BME280;46188;52.324;8.032;2023-05-23T08:56:18;100784.06;;;11.78;100.00
60345;BME280;46188;52.324;8.032;2023-05-23T08:58:44;100792.91;;;11.78;100.00
60345;BME280;46188;52.324;8.032;2023-05-23T09:01:12;100798.19;;;11.81;100.00
60345;BME280;46188;52.324;8.032;2023-05-23T09:03:38;100791.25;;;11.90;100.00
60345;BME280;46188;52.324;8.032;2023-05-23T09:06:08;100804.53;;;11.93;100.00
60345;BME280;46188;52.324;8.032;2023-05-23T09:08:33;100800.84;;;11.81;100.00
60345;BME280;46188;52.324;8.032;2023-05-23T09:10:59;100812.34;;;11.84;100.00
60345;BME280;46188;52.324;8.032;2023-05-23T09:13:27;100808.84;;;11.88;100.00
60345;BME280;46188;52.324;8.032;2023-05-23T09:18:28;100814.03;;;11.78;100.00
60345;BME280;46188;52.324;8.032;2023-05-23T09:20:56;100812.13;;;11.68;100.00
60345;BME280;46188;52.324;8.032;2023-05-23T09:23:22;100824.38;;;11.61;100.00
60345;BME280;46188;52.324;8.032;2023-05-23T09:25:48;100812.09;;;11.62;100.00
60345;BME280;46188;52.324;8.032;2023-05-23T09:28:13;100815.72;;;11.75;100.00
60345;BME280;46188;52.324;8.032;2023-05-23T09:30:38;100821.34;;;12.01;100.00
60345;BME280;46188;52.324;8.032;2023-05-23T09:33:03;100829.53;;;12.26;100.00
60345;BME280;46188;52.324;8.032;2023-05-23T09:35:29;100830.63;;;12.51;100.00
60345;BME280;46188;52.324;8.032;2023-05-23T09:37:56;100825.34;;;12.51;100.00
60345;BME280;46188;52.324;8.032;2023-05-23T09:40:28;100831.50;;;12.47;100.00
60345;BME280;46188;52.324;8.032;2023-05-23T09:42:54;100828.00;;;12.51;100.00
60345;BME280;46188;52.324;8.032;2023-05-23T09:45:20;100826.34;;;12.65;100.00
60345;BME280;46188;52.324;8.032;2023-05-23T09:47:49;100826.50;;;12.85;100.00
60345;BME280;46188;52.324;8.032;2023-05-23T09:50:15;100838.91;;;12.96;100.00
60345;BME280;46188;52.324;8.032;2023-05-23T09:52:40;100841.44;;;12.77;100.00
60345;BME280;46188;52.324;8.032;2023-05-23T09:55:06;100836.16;;;12.77;100.00
60345;BME280;46188;52.324;8.032;2023-05-23T09:57:39;100846.84;;;12.89;100.00
60345;BME280;46188;52.324;8.032;2023-05-23T10:00:06;100834.72;;;13.22;100.00
60345;BME280;46188;52.324;8.032;2023-05-23T10:05:33;100832.53;;;14.67;100.00
60345;BME280;46188;52.324;8.032;2023-05-23T10:08:00;100843.09;;;14.35;100.00
60345;BME280;46188;52.324;8.032;2023-05-23T10:10:30;100846.53;;;13.98;100.00
60345;BME280;46188;52.324;8.032;2023-05-23T10:12:57;100848.22;;;13.72;100.00
60345;BME280;46188;52.324;8.032;2023-05-23T10:15:25;100849.09;;;13.68;100.00
60345;BME280;46188;52.324;8.032;2023-05-23T10:18:15;100859.78;;;13.98;100.00
60345;BME280;46188;52.324;8.032;2023-05-23T10:20:42;100860.75;;;14.25;100.00
60345;BME280;46188;52.324;8.032;2023-05-23T10:23:12;100856.34;;;14.29;100.00
60345;BME280;46188;52.324;8.032;2023-05-23T10:25:38;100861.56;;;13.90;100.00
60345;BME280;46188;52.324;8.032;2023-05-23T10:28:05;100858.03;;;13.97;100.00
60345;BME280;46188;52.324;8.032;2023-05-23T10:30:31;100859.91;;;14.37;100.00
60345;BME280;46188;52.324;8.032;2023-05-23T10:32:56;100865.25;;;15.09;100.00
60345;BME280;46188;52.324;8.032;2023-05-23T10:35:34;100863.25;;;15.92;100.00
60345;BME280;46188;52.324;8.032;2023-05-23T10:38:08;100857.63;;;16.46;93.19
60345;BME280;46188;52.324;8.032;2023-05-23T10:41:05;100862.94;;;16.47;90.07
60345;BME280;46188;52.324;8.032;2023-05-23T10:46:07;100880.28;;;15.06;96.70
60345;BME280;46188;52.324;8.032;2023-05-23T10:48:34;100876.75;;;14.65;100.00
60345;BME280;46188;52.324;8.032;2023-05-23T10:51:01;100881.13;;;14.37;100.00
60345;BME280;46188;52.324;8.032;2023-05-23T10:53:29;100873.09;;;14.11;100.00
60345;BME280;46188;52.324;8.032;2023-05-23T10:55:55;100874.81;;;13.96;100.00
60345;BME280;46188;52.324;8.032;2023-05-23T10:58:21;100872.09;;;13.79;100.00
60345;BME280;46188;52.324;8.032;2023-05-23T11:00:54;100880.03;;;13.76;100.00
60345;BME280;46188;52.324;8.032;2023-05-23T11:03:33;100880.97;;;13.89;100.00
60345;BME280;46188;52.324;8.032;2023-05-23T11:05:59;100879.25;;;14.00;100.00
60345;BME280;46188;52.324;8.032;2023-05-23T11:08:25;100889.81;;;13.91;100.00
60345;BME280;46188;52.324;8.032;2023-05-23T11:11:00;100891.59;;;13.95;99.31
60345;BME280;46188;52.324;8.032;2023-05-23T11:13:54;100893.56;;;15.07;91.10
60345;BME280;46188;52.324;8.032;2023-05-23T11:16:31;100888.09;;;15.84;86.71
60345;BME280;46188;52.324;8.032;2023-05-23T11:21:45;100886.31;;;15.91;81.35
60345;BME280;46188;52.324;8.032;2023-05-23T11:24:11;100886.97;;;16.33;80.21
60345;BME280;46188;52.324;8.032;2023-05-23T11:26:36;100886.63;;;16.83;77.55
60345;BME280;46188;52.324;8.032;2023-05-23T11:29:02;100884.88;;;16.82;75.66
60345;BME280;46188;52.324;8.032;2023-05-23T11:31:36;100889.28;;;16.87;75.92
60345;BME280;46188;52.324;8.032;2023-05-23T11:34:02;100880.41;;;16.90;75.41
60345;BME280;46188;52.324;8.032;2023-05-23T11:36:27;100892.03;;;16.75;75.18
60345;BME280;46188;52.324;8.032;2023-05-23T11:38:54;100892.25;;;16.38;76.65
60345;BME280;46188;52.324;8.032;2023-05-23T11:41:19;100896.88;;;16.02;77.15
60345;BME280;46188;52.324;8.032;2023-05-23T11:43:49;100895.63;;;16.63;75.64
60345;BME280;46188;52.324;8.032;2023-05-23T11:46:15;100901.75;;;16.76;74.74
60345;BME280;46188;52.324;8.032;2023-05-23T11:48:47;100899.97;;;16.78;72.08
60345;BME280;46188;52.324;8.032;2023-05-23T11:51:13;100902.47;;;17.03;72.06
60345;BME280;46188;52.324;8.032;2023-05-23T11:53:39;100895.75;;;17.56;69.50
60345;BME280;46188;52.324;8.032;2023-05-23T11:56:04;100901.22;;;17.41;69.03
60345;BME280;46188;52.324;8.032;2023-05-23T11:58:34;100903.28;;;17.11;69.20
60345;BME280;46188;52.324;8.032;2023-05-23T12:01:00;100902.72;;;16.69;70.10
60345;BME280;46188;52.324;8.032;2023-05-23T12:03:26;100906.13;;;16.88;70.44
60345;BME280;46188;52.324;8.032;2023-05-23T12:05:53;100915.06;;;16.74;69.27
60345;BME280;46188;52.324;8.032;2023-05-23T12:08:18;100912.63;;;16.45;69.76
60345;BME280;46188;52.324;8.032;2023-05-23T12:10:57;100916.88;;;16.72;69.28
60345;BME280;46188;52.324;8.032;2023-05-23T12:13:24;100915.69;;;17.15;68.57
60345;BME280;46188;52.324;8.032;2023-05-23T12:15:56;100915.91;;;17.79;66.42
60345;BME280;46188;52.324;8.032;2023-05-23T12:18:22;100914.28;;;17.65;65.48
60345;BME280;46188;52.324;8.032;2023-05-23T12:20:48;100914.94;;;16.96;66.37
60345;BME280;46188;52.324;8.032;2023-05-23T12:23:22;100921.31;;;16.72;67.23
60345;BME280;46188;52.324;8.032;2023-05-23T12:25:52;100916.19;;;16.42;68.76
60345;BME280;46188;52.324;8.032;2023-05-23T12:28:17;100921.63;;;16.19;69.61
60345;BME280;46188;52.324;8.032;2023-05-23T12:30:44;100923.31;;;16.37;68.83
60345;BME280;46188;52.324;8.032;2023-05-23T12:33:10;100928.47;;;16.68;67.48
60345;BME280;46188;52.324;8.032;2023-05-23T12:35:36;100931.16;;;16.59;67.38
60345;BME280;46188;52.324;8.032;2023-05-23T12:38:01;100926.66;;;16.72;64.26
60345;BME280;46188;52.324;8.032;2023-05-23T12:40:30;100926.69;;;16.63;65.62
60345;BME280;46188;52.324;8.032;2023-05-23T12:42:56;100921.50;;;16.41;66.37
60345;BME280;46188;52.324;8.032;2023-05-23T12:45:23;100917.03;;;16.48;65.76
60345;BME280;46188;52.324;8.032;2023-05-23T12:47:48;100919.69;;;16.48;65.51
60345;BME280;46188;52.324;8.032;2023-05-23T12:50:14;100928.66;;;16.36;65.83
60345;BME280;46188;52.324;8.032;2023-05-23T12:52:39;100931.06;;;16.74;65.51